Time;durP1;ratioP1;P1;durP2;ratioP2;P2;SDS_P1;SDS_P2;PMS_P1;PMS_P2;Temp;Humidity;BMP_temperature;BMP_pressure;BME280_temperature;BME280_humidity;BME280_pressure;Samples;Min_cycle;Max_cycle;Signal;HPM_P1;HPM_P2
2023/02/12 00:01:34;;;;;;;3.20;1.67;;;2.60;99.90;;;2.35;68.63;101484.56;5069251;28;20213;-68
2023/02/12 00:04:04;;;;;;;1.73;1.20;;;2.60;99.90;;;2.33;68.78;101480.22;5068536;28;20202;-69
2023/02/12 00:06:32;;;;;;;2.77;1.10;;;2.50;99.90;;;2.31;69.35;101481.81;5072906;28;20202;-68
2023/02/12 00:09:01;;;;;;;2.40;1.20;;;2.50;99.90;;;2.29;69.98;101491.94;5073053;28;20232;-67
2023/02/12 00:11:30;;;;;;;1.50;1.00;;;2.50;99.90;;;2.26;70.09;101494.34;5073436;28;20209;-69
2023/02/12 00:13:59;;;;;;;2.50;1.37;;;2.50;99.90;;;2.27;69.70;101503.69;5072038;28;20232;-68
2023/02/12 00:16:29;;;;;;;1.90;1.13;;;2.50;99.90;;;2.30;69.56;101508.06;5072670;28;20241;-67
2023/02/12 00:18:59;;;;;;;3.07;1.30;;;2.50;99.90;;;2.33;69.49;101509.09;5070153;28;20206;-69
2023/02/12 00:21:29;;;;;;;3.13;1.40;;;2.50;99.90;;;2.32;69.84;101524.25;5073082;28;20209;-69
2023/02/12 00:23:58;;;;;;;4.03;1.30;;;2.50;99.90;;;2.24;69.21;101528.13;5068141;28;20206;-69
2023/02/12 00:26:26;;;;;;;1.20;1.00;;;2.50;99.90;;;2.18;69.15;101533.81;5071763;28;20215;-68
2023/02/12 00:28:56;;;;;;;2.27;0.90;;;2.40;99.90;;;2.10;69.08;101535.09;5071483;28;20244;-68
2023/02/12 00:31:27;;;;;;;2.13;1.10;;;2.30;99.90;;;2.07;67.97;101542.63;5073752;28;20222;-68
2023/02/12 00:33:56;;;;;;;2.90;1.17;;;2.30;99.90;;;2.02;68.37;101546.59;5051874;28;20650;-64
2023/02/12 00:36:29;;;;;;;2.60;0.90;;;2.30;99.90;;;1.98;67.73;101542.16;5048734;28;20225;-66
2023/02/12 00:38:58;;;;;;;2.87;1.00;;;2.20;99.90;;;1.94;68.63;101538.59;5052959;28;20209;-63
2023/02/12 00:41:27;;;;;;;2.60;1.03;;;2.20;99.90;;;1.92;67.82;101537.69;5051787;28;20619;-63
2023/02/12 00:43:56;;;;;;;3.27;0.90;;;2.20;99.90;;;1.90;67.59;101542.66;5052212;28;20251;-67
2023/02/12 00:46:24;;;;;;;1.53;1.10;;;2.10;99.90;;;1.91;68.39;101541.00;5045535;28;20725;-68
2023/02/12 00:48:53;;;;;;;2.00;1.27;;;2.10;99.90;;;1.91;67.94;101551.16;5048922;28;20626;-64
2023/02/12 00:51:21;;;;;;;2.63;1.00;;;2.10;99.90;;;1.91;68.74;101553.72;5051969;28;20206;-65
2023/02/12 00:53:51;;;;;;;1.03;0.90;;;2.10;99.90;;;1.91;68.38;101561.31;5043462;28;20202;-67
2023/02/12 00:56:20;;;;;;;2.83;1.10;;;2.10;99.90;;;1.90;68.74;101559.59;5051171;28;20238;-64
2023/02/12 00:58:48;;;;;;;3.97;0.83;;;2.10;99.90;;;1.89;67.93;101568.91;5052234;28;20235;-66
2023/02/12 01:01:17;;;;;;;1.83;0.90;;;2.10;99.90;;;1.87;68.12;101573.03;5051758;28;20236;-64
2023/02/12 01:03:46;;;;;;;1.50;1.00;;;2.10;99.90;;;1.86;67.68;101567.88;5049788;28;20256;-64
2023/02/12 01:06:14;;;;;;;1.77;0.80;;;2.10;99.90;;;1.85;67.64;101589.88;5051682;28;20267;-66
2023/02/12 01:08:42;;;;;;;1.90;1.37;;;2.00;99.90;;;1.84;67.89;101584.69;5051854;28;20205;-65
2023/02/12 01:11:13;;;;;;;1.57;1.00;;;2.10;99.90;;;1.84;68.34;101590.69;5051365;28;21024;-63
2023/02/12 01:13:42;;;;;;;2.83;0.80;;;2.10;99.90;;;1.87;68.22;101587.41;5051625;28;20322;-64
2023/02/12 01:16:16;;;;;;;2.33;1.10;;;2.10;99.90;;;1.87;67.69;101592.47;5048426;28;20202;-64
2023/02/12 01:18:46;;;;;;;1.43;1.10;;;2.10;99.90;;;1.91;68.00;101597.81;5046135;28;20255;-65
2023/02/12 01:21:17;;;;;;;1.37;0.90;;;2.10;99.90;;;2.01;68.83;101595.69;5048689;28;20210;-62
2023/02/12 01:23:47;;;;;;;1.07;0.80;;;2.20;99.90;;;2.06;67.71;101601.88;5051217;28;20297;-63
2023/02/12 01:26:19;;;;;;;1.13;0.93;;;2.20;99.90;;;2.07;67.70;101608.72;5053143;28;20253;-62
2023/02/12 01:28:52;;;;;;;2.60;1.40;;;2.20;99.90;;;2.05;66.51;101617.94;5049768;28;20647;-65
2023/02/12 01:31:23;;;;;;;2.50;1.07;;;2.20;99.90;;;2.02;67.17;101622.84;5050730;28;20283;-63
2023/02/12 01:33:55;;;;;;;3.10;1.13;;;2.20;99.90;;;1.98;67.07;101626.91;5050487;28;20260;-63
2023/02/12 01:36:24;;;;;;;1.67;0.83;;;2.20;99.90;;;1.94;67.07;101633.53;5051680;28;20225;-63
2023/02/12 01:38:53;;;;;;;1.67;1.13;;;2.10;99.90;;;1.90;66.84;101633.31;5049657;28;20233;-66
2023/02/12 01:41:27;;;;;;;1.40;1.07;;;2.10;99.90;;;1.89;66.59;101631.56;5050053;28;20218;-62
2023/02/12 01:44:12;;;;;;;1.90;1.03;;;2.10;99.90;;;1.88;66.58;101630.69;5049707;28;20198;-64
2023/02/12 01:46:42;;;;;;;1.63;0.83;;;2.10;99.90;;;1.91;66.98;101628.31;5051827;28;20202;-64
2023/02/12 01:49:17;;;;;;;1.87;1.00;;;2.10;99.90;;;1.94;66.68;101630.09;5051985;28;20616;-62
2023/02/12 01:51:49;;;;;;;1.87;1.27;;;2.10;99.90;;;1.97;66.26;101627.72;5050544;28;20693;-65
2023/02/12 01:54:20;;;;;;;1.43;1.03;;;2.10;99.90;;;1.98;66.87;101621.84;5051508;28;20202;-63
2023/02/12 01:56:50;;;;;;;4.60;1.00;;;2.20;99.90;;;1.96;66.11;101632.75;5050440;28;20217;-64
2023/02/12 01:59:20;;;;;;;3.33;1.50;;;2.10;99.90;;;1.94;66.38;101646.22;5050625;28;20643;-64
2023/02/12 02:01:49;;;;;;;2.73;1.23;;;2.10;99.90;;;1.94;65.52;101651.31;5047858;28;20198;-65
2023/02/12 02:04:23;;;;;;;2.43;1.00;;;2.10;99.90;;;1.93;65.82;101654.66;5039277;28;20201;-63
2023/02/12 02:06:57;;;;;;;1.57;1.03;;;2.10;99.90;;;1.91;66.06;101651.19;5052034;28;20642;-61
2023/02/12 02:09:27;;;;;;;1.97;1.10;;;2.10;99.90;;;1.96;66.02;101659.03;5054112;28;20202;-64
2023/02/12 02:14:44;;;;;;;1.23;1.00;;;2.10;99.90;;;1.93;66.08;101672.44;5051884;28;20206;-64
2023/02/12 02:17:34;;;;;;;1.50;0.93;;;2.10;99.90;;;1.93;65.29;101675.00;5052230;28;20218;-63
2023/02/12 02:20:42;;;;;;;1.37;1.00;;;2.10;99.90;;;1.93;65.88;101686.84;5046852;28;20276;-63
2023/02/12 02:23:55;;;;;;;1.23;0.70;;;2.10;99.90;;;1.93;65.63;101681.75;5051548;28;20627;-64
2023/02/12 02:26:50;;;;;;;0.70;0.70;;;2.10;99.90;;;1.91;65.29;101689.31;5040021;28;20214;-66
2023/02/12 02:29:49;;;;;;;1.80;1.23;;;2.00;99.90;;;1.90;65.22;101701.94;5053051;28;20221;-62
2023/02/12 02:32:24;;;;;;;1.87;0.70;;;2.10;99.90;;;1.91;65.37;101707.09;5046938;28;20299;-65
2023/02/12 02:35:00;;;;;;;1.20;0.73;;;2.10;99.90;;;1.91;64.96;101729.97;5054424;28;20233;-65
2023/02/12 02:37:35;;;;;;;0.83;0.67;;;2.10;99.90;;;1.89;65.10;101723.94;5053711;28;20244;-64
2023/02/12 02:40:14;;;;;;;0.77;0.77;;;2.10;99.90;;;1.93;65.58;101725.84;5051499;28;20256;-64
2023/02/12 02:42:51;;;;;;;0.70;0.70;;;2.10;99.90;;;1.93;64.53;101730.03;5053794;28;20206;-64
2023/02/12 02:45:28;;;;;;;1.50;0.87;;;2.10;99.90;;;1.90;64.77;101730.75;5045095;28;20202;-65
2023/02/12 02:48:03;;;;;;;1.30;1.03;;;2.10;99.90;;;1.93;64.55;101730.03;5052039;28;20611;-65
2023/02/12 02:50:38;;;;;;;2.27;1.00;;;2.10;99.90;;;1.91;64.71;101737.59;5052581;28;20198;-66
2023/02/12 02:53:13;;;;;;;1.77;1.23;;;2.10;99.90;;;1.92;64.64;101734.25;5052778;28;20252;-65
2023/02/12 02:55:47;;;;;;;1.53;1.17;;;2.10;99.90;;;1.93;65.00;101748.72;5052407;28;20229;-62
2023/02/12 02:58:20;;;;;;;1.73;1.40;;;2.10;99.90;;;1.90;65.24;101755.31;5051377;28;20263;-63
2023/02/12 03:00:56;;;;;;;2.93;1.30;;;2.10;99.90;;;1.94;64.97;101767.38;5052500;28;20233;-63
2023/02/12 03:03:32;;;;;;;1.40;1.10;;;2.10;99.90;;;1.97;64.80;101776.84;5052012;28;21040;-65
2023/02/12 03:06:08;;;;;;;1.27;0.90;;;2.10;99.90;;;1.99;65.19;101783.75;5046704;28;20202;-65
2023/02/12 03:08:41;;;;;;;1.57;1.07;;;2.10;99.90;;;2.03;64.65;101795.81;5052250;28;20233;-64
2023/02/12 03:11:15;;;;;;;2.23;1.03;;;2.10;99.90;;;2.06;65.24;101784.91;5053185;28;20201;-65
2023/02/12 03:13:48;;;;;;;1.90;1.00;;;2.20;99.90;;;2.06;64.40;101797.63;5053596;28;20210;-65
2023/02/12 03:16:22;;;;;;;1.83;0.70;;;2.20;99.90;;;2.05;63.94;101812.00;5051983;28;20255;-64
2023/02/12 03:18:55;;;;;;;0.87;0.77;;;2.20;99.90;;;2.03;64.42;101818.69;5050679;28;20284;-65
2023/02/12 03:21:31;;;;;;;0.60;0.50;;;2.20;99.90;;;2.00;63.79;101820.22;5051582;28;20198;-65
2023/02/12 03:24:07;;;;;;;0.67;0.67;;;2.20;99.90;;;1.98;63.42;101829.41;5054067;28;20198;-64
2023/02/12 03:26:45;;;;;;;1.43;0.60;;;2.10;99.90;;;1.91;63.63;101824.03;5052975;28;20732;-64
2023/02/12 03:29:13;;;;;;;0.77;0.70;;;2.10;99.90;;;1.87;63.30;101819.56;5050890;28;20225;-65
2023/02/12 03:31:56;;;;;;;1.07;0.60;;;2.10;99.90;;;1.87;63.06;101831.38;5051270;28;20264;-64
2023/02/12 03:34:35;;;;;;;1.10;1.03;;;2.00;99.90;;;1.81;62.67;101839.59;5052752;28;20241;-65
2023/02/12 03:37:10;;;;;;;1.37;0.70;;;2.00;99.90;;;1.79;62.81;101847.91;5050305;28;20198;-65
2023/02/12 03:39:49;;;;;;;1.70;0.60;;;1.90;99.90;;;1.73;63.47;101845.94;5049943;28;20252;-65
2023/02/12 03:42:31;;;;;;;1.53;0.90;;;1.90;99.90;;;1.67;63.33;101853.22;5048142;28;20201;-65
2023/02/12 03:45:09;;;;;;;1.10;0.70;;;2.00;99.90;;;1.63;62.82;101851.31;5052336;28;20190;-64
2023/02/12 03:47:46;;;;;;;1.00;0.80;;;1.90;99.90;;;1.61;62.87;101863.03;5049664;28;20202;-65
2023/02/12 03:50:22;;;;;;;0.70;0.70;;;1.80;99.90;;;1.60;63.11;101871.47;5051894;28;20279;-65
2023/02/12 03:52:51;;;;;;;1.83;0.60;;;1.80;99.90;;;1.60;63.25;101866.38;5050203;28;20229;-65
2023/02/12 03:55:20;;;;;;;1.60;0.70;;;1.80;99.90;;;1.60;63.54;101879.09;5051890;28;20198;-64
2023/02/12 03:57:57;;;;;;;1.30;0.60;;;1.80;99.90;;;1.61;63.42;101896.06;5052235;28;20234;-64
2023/02/12 04:00:27;;;;;;;1.33;0.70;;;1.80;99.90;;;1.60;63.40;101887.56;5052102;28;20198;-64
2023/02/12 04:02:56;;;;;;;0.73;0.67;;;1.80;99.90;;;1.63;63.62;101891.97;5050357;28;20213;-63
2023/02/12 04:05:27;;;;;;;1.87;0.80;;;1.80;99.90;;;1.64;63.21;101886.94;5050666;28;20666;-64
2023/02/12 04:07:58;;;;;;;0.80;0.70;;;1.80;99.90;;;1.67;63.37;101891.34;5050210;28;20202;-63
2023/02/12 04:10:35;;;;;;;1.17;0.60;;;1.90;99.90;;;1.67;63.21;101888.78;5048418;28;20202;-66
2023/02/12 04:13:18;;;;;;;0.83;0.83;;;1.90;99.90;;;1.67;63.00;101896.41;5053371;28;20251;-65
2023/02/12 04:16:13;;;;;;;0.77;0.77;;;1.80;99.90;;;1.66;62.55;101897.22;5050966;28;20717;-63
2023/02/12 04:18:44;;;;;;;0.70;0.70;;;1.80;99.90;;;1.68;62.64;101903.25;5045652;28;20240;-66
2023/02/12 04:21:32;;;;;;;0.93;0.73;;;1.80;99.90;;;1.63;63.08;101897.03;5047248;28;20234;-62
2023/02/12 04:24:11;;;;;;;0.50;0.50;;;1.80;99.90;;;1.61;62.52;101903.69;5045858;28;20206;-64
2023/02/12 04:26:49;;;;;;;0.77;0.60;;;1.80;99.90;;;1.60;62.80;101904.50;5049187;28;20230;-63
2023/02/12 04:29:26;;;;;;;0.63;0.63;;;1.80;99.90;;;1.58;62.64;101904.38;5048846;28;20221;-63
2023/02/12 04:32:04;;;;;;;1.90;0.70;;;1.80;99.90;;;1.54;62.75;101902.47;5052475;28;20245;-65
2023/02/12 04:34:39;;;;;;;0.60;0.60;;;1.80;99.90;;;1.55;62.87;101909.34;5050750;28;20881;-64
2023/02/12 04:37:16;;;;;;;1.03;0.77;;;1.70;99.90;;;1.55;62.42;101908.47;5043157;28;20267;-67
2023/02/12 04:39:46;;;;;;;0.93;0.70;;;1.70;99.90;;;1.57;62.76;101911.94;5051299;28;20305;-67
2023/02/12 04:42:14;;;;;;;0.83;0.70;;;1.70;99.90;;;1.57;63.03;101911.94;5056468;28;20210;-68
2023/02/12 04:44:45;;;;;;;1.67;0.70;;;1.70;99.90;;;1.58;62.93;101918.75;5051122;28;20259;-64
2023/02/12 04:47:14;;;;;;;4.97;0.87;;;1.70;99.90;;;1.58;62.54;101913.69;5052893;28;20202;-64
2023/02/12 04:49:42;;;;;;;1.70;1.00;;;1.80;99.90;;;1.58;63.12;101914.56;5052401;28;20592;-64
2023/02/12 04:52:12;;;;;;;1.80;0.70;;;1.80;99.90;;;1.66;63.03;101930.25;5051582;28;20649;-66
2023/02/12 04:54:41;;;;;;;1.07;0.93;;;1.80;99.90;;;1.67;63.22;101932.84;5050523;28;20229;-64
2023/02/12 04:57:09;;;;;;;0.90;0.70;;;1.80;99.90;;;1.68;63.06;101932.06;5050355;28;20206;-64
2023/02/12 04:59:38;;;;;;;1.80;0.83;;;1.80;99.90;;;1.69;62.96;101933.84;5043181;28;20230;-64
2023/02/12 05:02:06;;;;;;;1.00;0.87;;;1.80;99.90;;;1.69;62.69;101938.00;5051216;28;20620;-64
2023/02/12 05:04:34;;;;;;;1.97;0.90;;;1.80;99.90;;;1.69;63.03;101949.06;5052736;28;20209;-63
2023/02/12 05:07:03;;;;;;;1.47;0.77;;;1.80;99.90;;;1.66;62.64;101956.53;5051846;28;20663;-63
2023/02/12 05:09:33;;;;;;;1.00;0.80;;;1.80;99.90;;;1.63;63.01;101948.72;5051450;28;20248;-62
2023/02/12 05:12:01;;;;;;;0.93;0.70;;;1.80;99.90;;;1.61;62.89;101970.63;5050456;28;20233;-62
2023/02/12 05:14:30;;;;;;;1.73;0.80;;;1.80;99.90;;;1.61;62.71;101970.63;5051544;28;20244;-63
2023/02/12 05:16:59;;;;;;;2.10;0.60;;;1.80;99.90;;;1.59;62.79;101984.06;5051214;28;20209;-63
2023/02/12 05:19:27;;;;;;;1.07;0.90;;;1.70;99.90;;;1.60;62.70;101983.25;5051356;28;20225;-64
2023/02/12 05:21:55;;;;;;;2.10;0.80;;;1.70;99.90;;;1.61;62.90;101983.31;5046531;28;20237;-64
2023/02/12 05:24:24;;;;;;;1.20;0.90;;;1.80;99.90;;;1.66;62.58;101993.78;5050992;28;20197;-64
2023/02/12 05:26:54;;;;;;;1.30;0.80;;;1.80;99.90;;;1.67;62.64;101991.31;5049710;28;20214;-65
2023/02/12 05:29:23;;;;;;;1.10;0.80;;;1.80;99.90;;;1.66;62.45;101987.00;5049847;28;20213;-64
2023/02/12 05:31:51;;;;;;;1.40;1.30;;;1.80;99.90;;;1.62;62.23;101990.19;5050214;28;20356;-64
2023/02/12 05:34:20;;;;;;;1.37;1.27;;;1.80;99.90;;;1.60;62.75;102003.56;5048522;28;20970;-65
2023/02/12 05:36:48;;;;;;;1.07;0.83;;;1.80;99.90;;;1.54;62.42;102003.22;5050522;28;20241;-63
2023/02/12 05:39:17;;;;;;;2.13;1.10;;;1.70;99.90;;;1.51;63.07;102008.13;5050051;28;20229;-64
2023/02/12 05:41:45;;;;;;;1.10;1.00;;;1.70;99.90;;;1.49;63.21;102012.25;5054686;28;20213;-64
2023/02/12 05:44:15;;;;;;;0.83;0.70;;;1.70;99.90;;;1.43;63.40;102016.19;5054719;28;20205;-63
2023/02/12 05:46:44;;;;;;;0.90;0.90;;;1.60;99.90;;;1.40;62.93;102016.03;5055177;28;20213;-63
2023/02/12 05:49:12;;;;;;;1.70;1.00;;;1.60;99.90;;;1.42;63.73;102032.22;5053280;28;20194;-65
2023/02/12 05:51:41;;;;;;;0.70;0.70;;;1.60;99.90;;;1.44;63.83;102037.41;5053064;28;20617;-64
2023/02/12 05:54:10;;;;;;;1.10;0.90;;;1.70;99.90;;;1.49;63.49;102035.13;5050508;28;20606;-65
2023/02/12 05:56:44;;;;;;;1.00;0.90;;;1.70;99.90;;;1.48;63.73;102029.16;5054049;28;20202;-63
2023/02/12 05:59:17;;;;;;;2.03;1.27;;;1.70;99.90;;;1.52;62.99;102040.38;5053159;28;20205;-63
2023/02/12 06:01:48;;;;;;;1.23;1.13;;;1.70;99.90;;;1.57;63.04;102044.06;5052314;28;20236;-65
2023/02/12 06:04:22;;;;;;;1.53;1.20;;;1.70;99.90;;;1.60;63.26;102046.78;5049826;28;20259;-63
2023/02/12 06:06:51;;;;;;;2.33;1.03;;;1.70;99.90;;;1.63;62.73;102059.66;5054435;28;20206;-66
2023/02/12 06:09:20;;;;;;;0.97;0.97;;;1.80;99.90;;;1.67;63.24;102066.66;5053608;28;20206;-63
2023/02/12 06:11:48;;;;;;;0.90;0.60;;;1.80;99.90;;;1.71;63.04;102063.50;5053835;28;20213;-66
2023/02/12 06:14:19;;;;;;;0.83;0.80;;;1.80;99.90;;;1.75;63.06;102080.66;5053968;28;20208;-65
2023/02/12 06:16:51;;;;;;;1.53;1.00;;;1.90;99.90;;;1.76;62.47;102087.50;5054371;28;20206;-65
2023/02/12 06:19:20;;;;;;;1.20;0.87;;;1.90;99.90;;;1.83;62.43;102089.59;5053976;28;20228;-66
2023/02/12 06:21:50;;;;;;;1.17;0.80;;;1.90;99.90;;;1.84;62.10;102090.47;5053356;28;20251;-64
2023/02/12 06:24:18;;;;;;;1.20;0.80;;;1.90;99.90;;;1.80;62.06;102093.63;5054048;28;20229;-66
2023/02/12 06:26:50;;;;;;;0.90;0.90;;;1.90;99.90;;;1.76;62.10;102089.16;5053962;28;20210;-64
2023/02/12 06:29:21;;;;;;;2.27;1.10;;;1.90;99.90;;;1.73;62.58;102091.53;5052778;28;20279;-64
2023/02/12 06:31:49;;;;;;;2.87;0.80;;;1.80;99.90;;;1.66;62.29;102095.41;5053464;28;20295;-67
2023/02/12 06:34:18;;;;;;;1.27;0.90;;;1.80;99.90;;;1.60;61.84;102100.13;5049706;28;20654;-64
2023/02/12 06:36:47;;;;;;;0.83;0.80;;;1.80;99.90;;;1.53;61.91;102100.56;5052939;28;20214;-64
2023/02/12 06:39:17;;;;;;;1.63;1.17;;;1.70;99.90;;;1.45;62.02;102106.06;5053327;28;20229;-64
2023/02/12 06:41:46;;;;;;;2.07;0.83;;;1.70;99.90;;;1.42;61.97;102097.38;5052383;28;20655;-64
2023/02/12 06:44:14;;;;;;;3.83;1.10;;;1.70;99.90;;;1.41;62.38;102098.19;5053728;28;20210;-66
2023/02/12 06:46:44;;;;;;;1.07;0.87;;;1.60;99.90;;;1.41;62.12;102105.81;5052557;28;20217;-65
2023/02/12 06:49:15;;;;;;;1.63;0.97;;;1.60;99.90;;;1.41;62.33;102105.81;5051629;28;20206;-68
2023/02/12 06:51:43;;;;;;;1.03;0.90;;;1.70;99.90;;;1.47;62.53;102107.81;5049765;28;20674;-65
2023/02/12 06:54:15;;;;;;;1.10;0.87;;;1.70;99.90;;;1.54;62.01;102107.38;5051873;28;20197;-63
2023/02/12 06:56:44;;;;;;;0.90;0.90;;;1.70;99.90;;;1.57;61.50;102110.97;5055086;28;20198;-67
2023/02/12 06:59:15;;;;;;;1.27;0.90;;;1.70;99.90;;;1.57;61.93;102112.63;5060066;28;20206;-66
2023/02/12 07:01:45;;;;;;;1.30;0.80;;;1.80;99.90;;;1.62;61.78;102113.78;5058796;28;20606;-66
2023/02/12 07:04:14;;;;;;;1.77;1.03;;;1.80;99.90;;;1.74;62.05;102116.16;5058030;28;20252;-65
2023/02/12 07:06:42;;;;;;;1.27;0.90;;;1.90;99.90;;;1.86;61.89;102120.28;5057612;28;20296;-66
2023/02/12 07:09:11;;;;;;;1.60;1.10;;;2.10;99.90;;;2.05;61.85;102119.66;5058573;28;20620;-66
2023/02/12 07:11:40;;;;;;;2.13;1.00;;;2.30;99.90;;;2.26;60.83;102126.75;5054863;28;20700;-66
2023/02/12 07:14:14;;;;;;;1.17;1.07;;;2.50;99.90;;;2.48;60.85;102128.78;5059385;28;20259;-65
2023/02/12 07:16:44;;;;;;;2.00;1.13;;;2.70;99.90;;;2.64;60.06;102134.78;5057992;28;20248;-68
2023/02/12 07:19:16;;;;;;;1.00;0.97;;;2.90;99.90;;;2.80;58.81;102141.59;5056373;28;20213;-66
2023/02/12 07:21:45;;;;;;;1.27;0.90;;;3.00;99.90;;;2.88;58.08;102144.56;5060268;28;20202;-67
2023/02/12 07:24:14;;;;;;;1.47;0.90;;;3.10;99.90;;;2.98;57.89;102144.22;5057532;28;20206;-65
2023/02/12 07:26:43;;;;;;;1.53;0.80;;;3.20;99.90;;;3.09;56.53;102142.25;5057418;28;20198;-65
2023/02/12 07:29:12;;;;;;;0.93;0.90;;;3.20;99.90;;;3.12;57.14;102137.31;5066734;28;20226;-66
2023/02/12 07:31:41;;;;;;;1.53;1.20;;;3.40;99.90;;;3.23;56.93;102141.28;5068504;28;20237;-67
2023/02/12 07:34:11;;;;;;;1.83;1.20;;;3.50;99.90;;;3.32;56.26;102133.28;5061732;28;20665;-68
2023/02/12 07:36:41;;;;;;;1.17;1.07;;;3.60;99.90;;;3.47;56.08;102135.72;5056176;28;20206;-67
2023/02/12 07:39:12;;;;;;;1.23;0.90;;;3.80;99.90;;;3.78;56.00;102120.28;5050071;28;20225;-66
2023/02/12 07:41:40;;;;;;;1.33;1.17;;;4.00;99.90;;;4.08;55.39;102128.56;5053517;28;20221;-68
2023/02/12 07:44:12;;;;;;;1.70;0.90;;;4.40;99.90;;;4.22;54.63;102126.66;5053961;28;20201;-68
2023/02/12 07:46:44;;;;;;;2.10;0.87;;;4.50;99.90;;;4.33;53.83;102133.16;5051133;28;20247;-67
2023/02/12 07:49:19;;;;;;;1.00;0.90;;;4.60;99.90;;;4.43;52.99;102143.00;5052421;28;20564;-67
2023/02/12 07:51:48;;;;;;;1.23;1.13;;;4.70;99.90;;;4.52;52.77;102138.31;5054727;28;20230;-67
2023/02/12 07:54:17;;;;;;;1.70;1.03;;;4.80;99.90;;;4.62;52.63;102142.19;5053354;28;20558;-67
2023/02/12 07:56:46;;;;;;;1.17;1.00;;;4.90;99.90;;;4.67;52.02;102150.03;5049459;28;20198;-67
2023/02/12 07:59:19;;;;;;;1.10;0.93;;;5.00;99.90;;;4.76;51.96;102148.81;5054707;28;20666;-67
2023/02/12 08:01:50;;;;;;;1.23;1.00;;;5.10;99.90;;;4.80;51.09;102145.56;5049521;28;20233;-66
2023/02/12 08:04:24;;;;;;;2.93;1.10;;;5.20;99.90;;;4.92;51.74;102150.38;5056658;28;20228;-67
2023/02/12 08:06:55;;;;;;;1.07;0.93;;;5.30;99.90;;;4.99;50.62;102151.53;5054129;28;20205;-68
2023/02/12 08:09:26;;;;;;;2.03;0.90;;;5.30;99.90;;;5.02;50.33;102146.56;5049876;28;20650;-68
2023/02/12 08:11:54;;;;;;;1.50;1.10;;;5.30;99.90;;;5.17;50.60;102157.44;5055703;28;20247;-70
2023/02/12 08:14:23;;;;;;;1.30;1.10;;;5.50;99.90;;;5.39;50.47;102164.38;5052757;28;20210;-71
2023/02/12 08:16:52;;;;;;;2.20;0.90;;;5.70;99.90;;;5.60;49.75;102167.00;5059679;28;20229;-68
2023/02/12 08:19:22;;;;;;;0.90;0.87;;;5.90;99.90;;;5.75;49.40;102167.66;5057865;28;20211;-69
2023/02/12 08:21:55;;;;;;;0.93;0.90;;;6.00;99.90;;;5.92;49.15;102167.47;5059642;28;20256;-71
2023/02/12 08:24:24;;;;;;;1.77;1.10;;;6.20;99.90;;;6.08;48.54;102172.47;5049975;28;20755;-70
2023/02/12 08:26:53;;;;;;;1.93;1.00;;;6.30;99.90;;;6.16;47.49;102171.06;5057138;28;20273;-69
2023/02/12 08:29:24;;;;;;;2.63;1.30;;;6.40;99.90;;;6.18;47.44;102171.13;5061037;28;20221;-69
2023/02/12 08:31:57;;;;;;;1.43;1.30;;;6.40;99.90;;;6.19;47.51;102178.88;5056467;28;20229;-70
2023/02/12 08:34:29;;;;;;;1.23;1.10;;;6.50;99.90;;;6.15;46.85;102171.00;5059097;28;20228;-70
2023/02/12 08:36:58;;;;;;;1.53;1.10;;;6.50;99.90;;;6.13;46.87;102177.75;5064925;28;20206;-68
2023/02/12 08:39:29;;;;;;;2.00;1.10;;;6.50;99.90;;;6.29;47.22;102180.09;5065591;28;20187;-70
2023/02/12 08:42:00;;;;;;;1.70;1.30;;;6.60;99.90;;;6.53;46.84;102169.97;5061135;28;20504;-67
2023/02/12 08:44:29;;;;;;;1.60;1.47;;;6.80;99.90;;;6.79;46.82;102170.97;5068672;28;20201;-68
2023/02/12 08:46:57;;;;;;;3.60;1.83;;;7.10;99.90;;;7.05;45.59;102166.81;5071524;28;20209;-68
2023/02/12 08:49:30;;;;;;;2.60;2.03;;;7.30;99.90;;;7.22;45.38;102159.75;5072005;28;20204;-69
2023/02/12 08:52:01;;;;;;;3.10;2.17;;;7.50;99.40;;;7.52;45.44;102159.97;5069080;28;20221;-70
2023/02/12 08:54:31;;;;;;;2.87;2.00;;;7.80;98.30;;;7.64;44.04;102162.09;5069005;28;20186;-70
2023/02/12 08:57:01;;;;;;;2.30;2.10;;;7.90;97.30;;;7.61;44.47;102152.59;5065813;28;20205;-70
2023/02/12 08:59:30;;;;;;;5.13;1.83;;;7.90;97.20;;;7.52;44.19;102159.09;5069673;28;20206;-68
2023/02/12 09:01:59;;;;;;;2.97;2.07;;;7.80;96.30;;;7.54;44.50;102173.72;5072144;28;20220;-68
2023/02/12 09:04:30;;;;;;;2.20;2.00;;;7.90;96.70;;;7.57;44.50;102178.94;5074758;28;20214;-72
2023/02/12 09:06:58;;;;;;;2.83;2.17;;;7.90;95.90;;;7.56;44.50;102177.22;5072396;28;20224;-70
2023/02/12 09:09:27;;;;;;;3.23;2.10;;;7.90;95.90;;;8.01;46.03;102178.72;5066792;28;20205;-68
2023/02/12 09:11:55;;;;;;;2.60;2.00;;;8.60;98.50;;;10.55;43.46;102179.06;5070718;28;20201;-69
2023/02/12 09:14:24;;;;;;;3.47;2.73;;;11.20;98.30;;;13.86;37.78;102174.06;5057011;28;20896;-67
2023/02/12 09:16:53;;;;;;;2.57;2.23;;;14.00;93.30;;;17.01;30.90;102162.78;5059539;28;20217;-68
2023/02/12 09:19:22;;;;;;;2.00;1.80;;;16.80;78.70;;;19.87;25.63;102165.16;5069901;28;20181;-68
2023/02/12 09:21:53;;;;;;;2.57;1.83;;;19.60;63.70;;;22.41;22.32;102166.75;5065800;28;20709;-70
2023/02/12 09:24:26;;;;;;;1.63;1.50;;;21.80;56.20;;;24.55;18.47;102165.31;5061357;28;20186;-72
2023/02/12 09:26:55;;;;;;;3.28;1.30;;;23.60;49.10;;;25.57;17.69;102172.88;5060491;28;20185;-70
2023/02/12 09:29:23;;;;;;;2.95;1.50;;;24.70;45.90;;;26.43;17.20;102169.25;5062364;28;20248;-73
2023/02/12 09:31:52;;;;;;;1.73;1.50;;;25.90;44.20;;;27.22;16.14;102172.75;5055947;28;20246;-69
2023/02/12 09:34:21;;;;;;;2.33;1.65;;;27.20;41.90;;;28.37;15.22;102167.91;5054658;28;20205;-69
2023/02/12 09:36:49;;;;;;;1.75;1.45;;;28.20;40.00;;;29.68;14.05;102169.56;5048987;28;20210;-68
2023/02/12 09:39:19;;;;;;;3.00;1.80;;;29.00;38.80;;;30.66;12.95;102173.41;5051423;28;20224;-67
2023/02/12 09:42:21;;;;;;;2.60;1.85;;;30.00;36.70;;;31.46;12.81;102171.88;5045945;28;20233;-69
2023/02/12 09:45:01;;;;;;;1.92;1.60;;;30.70;35.60;;;32.49;12.11;102171.09;5051190;28;20244;-68
2023/02/12 09:47:38;;;;;;;2.40;1.67;;;31.50;34.80;;;33.18;11.44;102174.19;5054049;28;20233;-69
2023/02/12 09:50:27;;;;;;;2.80;1.85;;;32.50;33.00;;;33.38;10.68;102181.56;5058662;28;20202;-69
2023/02/12 09:52:58;;;;;;;2.13;1.70;;;33.00;31.40;;;33.48;10.67;102191.59;5054140;28;20198;-69
2023/02/12 09:55:31;;;;;;;1.80;1.48;;;33.20;30.80;;;33.00;10.67;102179.03;5058818;28;20220;-68
2023/02/12 09:58:07;;;;;;;2.30;1.70;;;32.70;30.20;;;32.90;10.62;102183.31;5049855;28;20677;-68
2023/02/12 10:00:35;;;;;;;2.33;1.80;;;32.50;29.90;;;33.17;10.56;102183.97;5049883;28;20197;-69
2023/02/12 10:03:13;;;;;;;2.50;1.80;;;32.60;30.10;;;33.97;10.12;102182.53;5046595;28;20256;-68
2023/02/12 10:05:46;;;;;;;2.33;1.92;;;33.30;29.80;;;34.79;9.66;102178.72;5048490;28;20206;-69
2023/02/12 10:08:49;;;;;;;2.10;1.60;;;33.70;29.80;;;35.34;9.33;102170.69;5042441;28;20198;-67
2023/02/12 10:11:52;;;;;;;2.10;1.50;;;34.30;29.30;;;36.09;9.03;102171.56;5036926;28;20240;-69
2023/02/12 10:14:50;;;;;;;2.28;1.70;;;34.90;28.50;;;36.12;8.64;102171.31;5038962;28;20248;-69
2023/02/12 10:17:33;;;;;;;3.58;2.42;;;34.80;28.20;;;35.56;8.56;102170.63;5051130;28;20447;-67
2023/02/12 10:20:37;;;;;;;4.00;2.30;;;34.80;27.80;;;34.88;8.91;102168.25;5040671;28;20202;-67
2023/02/12 10:23:38;;;;;;;3.55;2.60;;;33.90;27.90;;;34.72;9.00;102169.47;5051387;28;20613;-67
2023/02/12 10:26:18;;;;;;;2.63;2.00;;;33.60;28.00;;;34.60;8.88;102176.69;5046768;28;20451;-66
2023/02/12 10:28:49;;;;;;;2.88;1.55;;;33.80;28.20;;;34.90;9.09;102177.84;5047809;28;20225;-66
2023/02/12 10:31:27;;;;;;;2.80;1.40;;;34.00;28.10;;;35.13;8.66;102177.84;5049040;28;20241;-66
2023/02/12 10:33:57;;;;;;;2.03;1.60;;;34.10;28.20;;;34.00;8.91;102180.50;5050811;28;20205;-64
2023/02/12 10:36:41;;;;;;;1.98;1.50;;;33.30;27.80;;;32.89;9.65;102173.59;5051993;28;20237;-65
2023/02/12 10:39:18;;;;;;;2.45;1.73;;;32.20;28.20;;;32.57;10.07;102168.72;5046556;28;20568;-65
2023/02/12 10:42:08;;;;;;;1.60;1.40;;;31.80;28.80;;;32.09;10.66;102165.84;5051615;28;20206;-67
2023/02/12 10:44:38;;;;;;;1.90;1.63;;;31.40;28.90;;;31.79;10.07;102165.25;5037111;28;20209;-63
2023/02/12 10:47:07;;;;;;;2.28;1.80;;;30.80;29.00;;;31.59;10.50;102169.22;5035854;28;20859;-64
2023/02/12 10:49:35;;;;;;;2.38;1.88;;;30.40;29.10;;;32.02;10.64;102169.88;5034462;28;20209;-65
2023/02/12 10:52:18;;;;;;;2.60;1.67;;;30.80;29.40;;;32.52;10.04;102165.56;5027564;28;20238;-66